Time;durP1;ratioP1;P1;durP2;ratioP2;P2;SDS_P1;SDS_P2;PMS_P1;PMS_P2;Temp;Humidity;BMP_temperature;BMP_pressure;BME280_temperature;BME280_humidity;BME280_pressure;Samples;Min_cycle;Max_cycle;Signal;HPM_P1;HPM_P2
2021/11/05 00:00:39;;;;;;;2.30;1.70;;;7.10;99.90;;;;;;5025966;28;20236;-72
2021/11/05 00:03:06;;;;;;;2.00;1.90;;;7.10;99.90;;;;;;5026303;28;20209;-71
2021/11/05 00:05:35;;;;;;;2.00;1.80;;;7.10;99.90;;;;;;5026237;28;20213;-71
2021/11/05 00:08:07;;;;;;;1.80;1.70;;;7.10;99.90;;;;;;5025870;28;20204;-71
2021/11/05 00:10:34;;;;;;;1.73;1.63;;;7.00;99.90;;;;;;5026225;28;20245;-71
2021/11/05 00:13:01;;;;;;;1.30;1.30;;;7.00;99.90;;;;;;5025886;28;20278;-73
2021/11/05 00:15:28;;;;;;;1.57;1.50;;;7.00;99.90;;;;;;5026242;28;20254;-73
2021/11/05 00:17:54;;;;;;;1.40;1.30;;;7.00;99.90;;;;;;5026133;28;20638;-73
2021/11/05 00:20:21;;;;;;;1.70;1.60;;;7.00;99.90;;;;;;5026271;28;20262;-73
2021/11/05 00:22:49;;;;;;;1.40;1.30;;;7.00;99.90;;;;;;5025818;28;20205;-72
2021/11/05 00:25:16;;;;;;;1.50;1.40;;;6.90;99.90;;;;;;5026179;28;20217;-72
2021/11/05 00:27:43;;;;;;;1.40;1.30;;;6.90;99.90;;;;;;5025811;28;20247;-71
2021/11/05 00:30:12;;;;;;;1.80;1.30;;;6.90;99.90;;;;;;5025701;28;20665;-71
2021/11/05 00:32:40;;;;;;;1.10;1.10;;;6.90;99.90;;;;;;5026020;28;20254;-72
2021/11/05 00:35:07;;;;;;;1.50;1.40;;;6.90;99.90;;;;;;5025484;28;20814;-71
2021/11/05 00:37:34;;;;;;;1.33;1.33;;;6.90;99.90;;;;;;5025825;28;20257;-72
2021/11/05 00:40:02;;;;;;;1.50;1.47;;;6.90;99.90;;;;;;5025765;28;20209;-72
2021/11/05 00:42:29;;;;;;;1.57;1.47;;;6.90;99.90;;;;;;5026322;28;20205;-72
2021/11/05 00:44:55;;;;;;;1.43;1.43;;;6.90;99.90;;;;;;5025478;28;20686;-72
2021/11/05 00:47:22;;;;;;;2.30;1.60;;;6.90;99.90;;;;;;5025870;28;20205;-72
2021/11/05 00:49:49;;;;;;;1.80;1.70;;;6.90;99.90;;;;;;5025403;28;20230;-72
2021/11/05 00:52:18;;;;;;;1.60;1.50;;;6.90;99.90;;;;;;5025140;28;20790;-72
2021/11/05 00:54:45;;;;;;;1.60;1.50;;;6.90;99.90;;;;;;5025697;28;20268;-72
2021/11/05 00:57:13;;;;;;;1.47;1.47;;;6.90;99.90;;;;;;5025399;28;20609;-72
2021/11/05 00:59:40;;;;;;;1.53;1.43;;;6.90;99.90;;;;;;5025434;28;20241;-72
2021/11/05 01:02:08;;;;;;;1.47;1.47;;;6.90;99.90;;;;;;5025173;28;20212;-72
2021/11/05 01:04:34;;;;;;;1.70;1.60;;;6.90;99.90;;;;;;5025425;28;20213;-74
2021/11/05 01:07:07;;;;;;;1.60;1.50;;;6.90;99.90;;;;;;5027024;28;20265;-73
2021/11/05 01:09:36;;;;;;;1.67;1.57;;;6.90;99.90;;;;;;5032145;28;20196;-73
2021/11/05 01:12:07;;;;;;;1.40;1.40;;;6.90;99.90;;;;;;5032126;27;20811;-73
2021/11/05 01:14:35;;;;;;;1.40;1.30;;;6.90;99.90;;;;;;5031974;28;20324;-73
2021/11/05 01:17:03;;;;;;;1.87;1.60;;;7.00;99.90;;;;;;5031440;28;20766;-72
2021/11/05 01:19:30;;;;;;;1.80;1.70;;;7.00;99.90;;;;;;5031752;28;20209;-72
2021/11/05 01:21:56;;;;;;;2.27;1.80;;;6.90;99.90;;;;;;5031630;28;20219;-72
2021/11/05 01:24:23;;;;;;;1.70;1.60;;;7.00;99.90;;;;;;5040571;27;20206;-73
2021/11/05 01:26:49;;;;;;;1.90;1.77;;;7.00;99.90;;;;;;5020746;28;20705;-73
2021/11/05 01:29:16;;;;;;;1.90;1.80;;;6.90;99.90;;;;;;5012221;28;20206;-73
2021/11/05 01:31:44;;;;;;;1.73;1.63;;;7.00;99.90;;;;;;5012142;28;20572;-73
2021/11/05 01:34:11;;;;;;;1.93;1.83;;;6.90;99.90;;;;;;5011691;28;20233;-72
2021/11/05 01:36:38;;;;;;;1.70;1.60;;;6.90;99.90;;;;;;5011945;28;20254;-72
2021/11/05 01:39:05;;;;;;;1.83;1.73;;;7.00;99.90;;;;;;5012031;28;20618;-72
2021/11/05 01:41:31;;;;;;;1.70;1.60;;;6.90;99.90;;;;;;5011973;28;20266;-72
2021/11/05 01:43:58;;;;;;;1.60;1.50;;;7.00;99.90;;;;;;5011689;28;20210;-72
2021/11/05 01:46:25;;;;;;;1.80;1.70;;;7.00;99.90;;;;;;5011630;28;20857;-72
2021/11/05 01:48:53;;;;;;;1.57;1.47;;;7.00;99.90;;;;;;5011671;28;20209;-72
2021/11/05 01:51:20;;;;;;;1.77;1.60;;;7.00;99.90;;;;;;5011715;28;20225;-72
2021/11/05 01:53:47;;;;;;;1.97;1.60;;;6.90;99.90;;;;;;5011404;28;20309;-72
2021/11/05 01:56:17;;;;;;;3.60;1.80;;;6.90;99.90;;;;;;5011563;28;20206;-72
2021/11/05 01:58:43;;;;;;;1.70;1.60;;;6.90;99.90;;;;;;5011696;28;20213;-72
2021/11/05 02:01:10;;;;;;;2.60;1.80;;;6.90;99.90;;;;;;5011065;28;20294;-72
2021/11/05 02:03:37;;;;;;;1.97;1.87;;;6.90;99.90;;;;;;5011517;28;20297;-72
2021/11/05 02:06:06;;;;;;;1.63;1.53;;;6.90;99.90;;;;;;5011394;28;20244;-72
2021/11/05 02:08:35;;;;;;;1.77;1.67;;;6.90;99.90;;;;;;5011232;28;20205;-72
2021/11/05 02:11:04;;;;;;;1.47;1.40;;;6.90;99.90;;;;;;5011356;28;20569;-72
2021/11/05 02:13:34;;;;;;;1.63;1.53;;;6.90;99.90;;;;;;5011176;28;20229;-72
2021/11/05 02:16:01;;;;;;;1.70;1.60;;;7.00;99.90;;;;;;5010986;28;20230;-71
2021/11/05 02:18:30;;;;;;;2.37;2.27;;;6.90;99.90;;;;;;5009652;28;20569;-71
2021/11/05 02:20:57;;;;;;;2.37;2.27;;;6.90;99.90;;;;;;5007690;28;20579;-73
2021/11/05 02:23:26;;;;;;;2.77;2.57;;;6.90;99.90;;;;;;5007664;28;20728;-73
2021/11/05 02:25:53;;;;;;;3.20;2.57;;;6.90;99.90;;;;;;5008011;28;20213;-72
2021/11/05 02:28:20;;;;;;;2.93;2.63;;;6.90;99.90;;;;;;5008118;28;20209;-72
2021/11/05 02:30:47;;;;;;;3.10;2.90;;;6.90;99.90;;;;;;5007902;28;20743;-72
2021/11/05 02:33:14;;;;;;;3.10;2.90;;;7.00;99.90;;;;;;5007963;28;20209;-72
2021/11/05 02:35:41;;;;;;;2.80;2.60;;;7.00;99.90;;;;;;5007661;28;20609;-72
2021/11/05 02:38:08;;;;;;;3.53;3.23;;;6.90;99.90;;;;;;5007802;28;20250;-72
2021/11/05 02:40:36;;;;;;;3.27;3.07;;;6.90;99.90;;;;;;5008032;28;20205;-73
2021/11/05 02:43:03;;;;;;;3.27;3.07;;;6.90;99.90;;;;;;5007842;28;20241;-73
2021/11/05 02:45:29;;;;;;;3.43;3.20;;;6.90;99.90;;;;;;5007942;28;20652;-73
2021/11/05 02:47:58;;;;;;;3.40;3.10;;;7.00;99.90;;;;;;5007703;28;20233;-73
2021/11/05 02:50:25;;;;;;;3.33;2.90;;;7.00;99.90;;;;;;5007899;28;20233;-73
2021/11/05 02:52:52;;;;;;;3.30;3.07;;;7.00;99.90;;;;;;5007883;28;20209;-73
2021/11/05 02:55:18;;;;;;;3.80;3.37;;;6.90;99.90;;;;;;5007651;28;20233;-72
2021/11/05 02:57:47;;;;;;;3.73;3.43;;;7.00;99.90;;;;;;5007772;28;20549;-72
2021/11/05 03:00:15;;;;;;;3.67;3.37;;;6.90;99.90;;;;;;5007329;28;20253;-72
2021/11/05 03:02:42;;;;;;;3.73;3.43;;;7.00;99.90;;;;;;5007744;28;20251;-73
2021/11/05 03:05:08;;;;;;;6.00;4.00;;;7.00;99.90;;;;;;5007417;28;20209;-73
2021/11/05 03:07:35;;;;;;;4.63;3.90;;;7.00;99.90;;;;;;5007411;28;20245;-72
2021/11/05 03:10:02;;;;;;;4.10;3.57;;;7.00;99.90;;;;;;5007435;28;20672;-73
2021/11/05 03:12:28;;;;;;;4.10;3.77;;;7.00;99.90;;;;;;5007354;28;20233;-73
2021/11/05 03:14:57;;;;;;;4.47;4.00;;;7.00;99.90;;;;;;5006742;28;20719;-73
2021/11/05 03:17:24;;;;;;;4.40;4.10;;;7.00;99.90;;;;;;5007501;28;20210;-73
2021/11/05 03:19:52;;;;;;;4.10;3.80;;;7.00;99.90;;;;;;5007295;28;20233;-73
2021/11/05 03:22:19;;;;;;;4.30;3.90;;;7.00;99.90;;;;;;5007333;28;20201;-73
2021/11/05 03:24:46;;;;;;;5.10;4.67;;;7.10;99.90;;;;;;5007026;28;20282;-73
2021/11/05 03:27:13;;;;;;;4.53;4.13;;;7.10;99.90;;;;;;5006941;28;20608;-73
2021/11/05 03:29:39;;;;;;;4.60;4.17;;;7.10;99.90;;;;;;5006933;28;20255;-73
2021/11/05 03:32:09;;;;;;;4.70;4.30;;;7.10;99.90;;;;;;5005888;28;20209;-73
2021/11/05 03:34:35;;;;;;;5.40;4.83;;;7.10;99.90;;;;;;5006758;28;20265;-73
2021/11/05 03:37:02;;;;;;;4.70;4.30;;;7.10;99.90;;;;;;5007011;28;20206;-73
2021/11/05 03:39:29;;;;;;;4.60;4.20;;;7.10;99.90;;;;;;5007096;28;20210;-73
2021/11/05 03:41:56;;;;;;;4.87;4.47;;;7.10;99.90;;;;;;5006842;28;20219;-72
2021/11/05 03:44:23;;;;;;;5.37;4.97;;;7.20;99.90;;;;;;5006742;28;20205;-72
2021/11/05 03:46:50;;;;;;;5.60;5.13;;;7.10;99.90;;;;;;5006638;28;20237;-72
2021/11/05 03:49:18;;;;;;;5.70;5.20;;;7.20;99.90;;;;;;5006903;28;20270;-71
2021/11/05 03:51:44;;;;;;;6.73;5.73;;;7.20;99.90;;;;;;5006803;28;20233;-72
2021/11/05 03:54:11;;;;;;;5.90;5.40;;;7.20;99.90;;;;;;5006583;28;20304;-72
2021/11/05 03:56:38;;;;;;;6.97;5.77;;;7.20;99.90;;;;;;5006779;28;20232;-73
2021/11/05 03:59:04;;;;;;;6.30;5.70;;;7.20;99.90;;;;;;5006409;28;20667;-73
2021/11/05 04:01:32;;;;;;;7.87;6.30;;;7.20;99.90;;;;;;5015585;28;20241;-72
2021/11/05 04:03:58;;;;;;;7.23;6.30;;;7.20;99.90;;;;;;5006765;28;20621;-72
2021/11/05 04:06:27;;;;;;;7.43;6.63;;;7.20;99.90;;;;;;5022629;28;20303;-73
2021/11/05 04:08:54;;;;;;;7.00;6.27;;;7.30;99.90;;;;;;5022196;28;20213;-72
2021/11/05 04:11:20;;;;;;;7.63;6.90;;;7.20;99.90;;;;;;5022819;28;20305;-72
2021/11/05 04:13:49;;;;;;;7.57;6.87;;;7.30;99.90;;;;;;5022456;28;20233;-72
2021/11/05 04:16:16;;;;;;;8.50;7.67;;;7.30;99.90;;;;;;5022080;28;20617;-72
2021/11/05 04:18:43;;;;;;;8.57;7.63;;;7.30;99.90;;;;;;5022620;28;20269;-72
2021/11/05 04:21:10;;;;;;;9.17;8.17;;;7.30;99.90;;;;;;5022270;28;20212;-74
2021/11/05 04:23:38;;;;;;;12.67;10.10;;;7.30;99.90;;;;;;5022480;28;20233;-75
2021/11/05 04:26:06;;;;;;;12.03;10.50;;;7.30;99.90;;;;;;5022456;28;20220;-72
2021/11/05 04:28:33;;;;;;;9.53;8.47;;;7.40;99.90;;;;;;5022242;28;20468;-72
2021/11/05 04:31:01;;;;;;;9.87;8.70;;;7.30;99.90;;;;;;5021930;28;20213;-72
2021/11/05 04:33:31;;;;;;;10.57;9.33;;;7.30;99.90;;;;;;5022138;28;20263;-72
2021/11/05 04:36:01;;;;;;;9.63;8.63;;;7.30;99.90;;;;;;5021913;28;20239;-72
2021/11/05 04:38:28;;;;;;;10.80;9.50;;;7.30;99.90;;;;;;5022203;28;20197;-72
2021/11/05 04:40:56;;;;;;;11.57;10.30;;;7.30;99.90;;;;;;5021746;28;20289;-71
2021/11/05 04:43:23;;;;;;;11.57;9.70;;;7.30;99.90;;;;;;5021738;28;20670;-70
2021/11/05 04:45:50;;;;;;;11.53;9.53;;;7.30;99.90;;;;;;5022180;28;20216;-70
2021/11/05 04:48:17;;;;;;;13.00;10.67;;;7.30;99.90;;;;;;5021775;28;20628;-71
2021/11/05 04:50:44;;;;;;;13.23;10.87;;;7.30;99.90;;;;;;5021733;28;20229;-70
2021/11/05 04:53:11;;;;;;;13.23;11.00;;;7.40;99.90;;;;;;5021331;28;20682;-70
2021/11/05 04:55:38;;;;;;;14.40;11.83;;;7.40;99.90;;;;;;5021967;28;20240;-70
2021/11/05 04:58:07;;;;;;;12.60;11.30;;;7.40;99.90;;;;;;5021724;28;20283;-71
2021/11/05 05:00:35;;;;;;;14.40;11.90;;;7.40;99.90;;;;;;5020746;28;20281;-71
2021/11/05 05:03:02;;;;;;;16.03;12.07;;;7.40;99.90;;;;;;5024562;28;20274;-71
2021/11/05 05:05:29;;;;;;;16.03;13.00;;;7.40;99.90;;;;;;5013768;28;20205;-70
2021/11/05 05:07:57;;;;;;;14.37;12.87;;;7.40;99.90;;;;;;5004970;28;20683;-70
2021/11/05 05:10:27;;;;;;;17.90;12.80;;;7.40;99.90;;;;;;5013393;28;20242;-70
2021/11/05 05:12:54;;;;;;;17.90;13.57;;;7.40;99.90;;;;;;5013664;28;20217;-70
2021/11/05 05:15:22;;;;;;;18.90;14.00;;;7.40;99.90;;;;;;5016572;28;20630;-70
2021/11/05 05:17:49;;;;;;;18.53;14.23;;;7.40;99.90;;;;;;5013697;28;20198;-70
2021/11/05 05:20:17;;;;;;;18.53;13.90;;;7.40;99.90;;;;;;5011434;28;20227;-70
2021/11/05 05:22:46;;;;;;;17.57;14.67;;;7.40;99.90;;;;;;5012096;28;20238;-70
2021/11/05 05:25:14;;;;;;;19.87;15.23;;;7.40;99.90;;;;;;5015836;28;20193;-71
2021/11/05 05:27:42;;;;;;;19.27;14.27;;;7.40;99.90;;;;;;5012948;28;20201;-70
2021/11/05 05:30:11;;;;;;;17.83;14.27;;;7.40;99.90;;;;;;5015859;28;20198;-70
2021/11/05 05:32:39;;;;;;;20.17;15.13;;;7.40;99.90;;;;;;5012805;28;20197;-71
2021/11/05 05:35:06;;;;;;;19.27;15.20;;;7.40;99.90;;;;;;5015165;28;20290;-71
2021/11/05 05:37:33;;;;;;;19.13;14.70;;;7.40;99.90;;;;;;5016581;28;20263;-70
2021/11/05 05:40:00;;;;;;;18.67;14.33;;;7.40;99.90;;;;;;5013390;28;20716;-71
2021/11/05 05:42:26;;;;;;;19.10;14.63;;;7.40;99.90;;;;;;5021887;28;20228;-70
2021/11/05 05:44:53;;;;;;;19.33;14.93;;;7.50;99.90;;;;;;5016408;28;20233;-71
2021/11/05 05:47:23;;;;;;;20.00;15.33;;;7.50;99.90;;;;;;5016455;28;20202;-70
2021/11/05 05:49:52;;;;;;;23.87;15.33;;;7.50;99.90;;;;;;5013381;28;20229;-71
2021/11/05 05:52:19;;;;;;;21.43;16.33;;;7.50;99.90;;;;;;5016809;28;20655;-71
2021/11/05 05:54:46;;;;;;;20.97;16.00;;;7.50;99.90;;;;;;5015305;28;20255;-71
2021/11/05 05:57:12;;;;;;;21.03;15.77;;;7.50;99.90;;;;;;5016066;28;20250;-71
2021/11/05 05:59:42;;;;;;;21.70;15.93;;;7.50;99.90;;;;;;5015724;28;20794;-71
2021/11/05 06:02:09;;;;;;;19.27;15.07;;;7.50;99.90;;;;;;5015995;28;20198;-71
2021/11/05 06:04:36;;;;;;;21.87;16.10;;;7.50;99.90;;;;;;5018868;28;20193;-71
2021/11/05 06:07:04;;;;;;;23.63;15.77;;;7.50;99.90;;;;;;5015921;28;20731;-71
2021/11/05 06:09:31;;;;;;;19.47;15.67;;;7.50;99.90;;;;;;5019088;28;20202;-71
2021/11/05 06:11:58;;;;;;;21.37;15.87;;;7.50;99.90;;;;;;5018681;28;20220;-71
2021/11/05 06:14:24;;;;;;;23.17;16.43;;;7.50;99.90;;;;;;5018816;28;20281;-71
2021/11/05 06:16:51;;;;;;;22.13;16.77;;;7.50;99.90;;;;;;5015518;28;20275;-71
2021/11/05 06:19:18;;;;;;;22.80;16.87;;;7.50;99.90;;;;;;5018648;28;20197;-72
2021/11/05 06:21:44;;;;;;;26.37;18.10;;;7.50;99.90;;;;;;5018080;28;20213;-72
2021/11/05 06:24:13;;;;;;;21.53;17.13;;;7.50;99.90;;;;;;5019180;28;20197;-72
2021/11/05 06:26:39;;;;;;;22.10;16.67;;;7.50;99.90;;;;;;5017112;28;20202;-71
2021/11/05 06:29:06;;;;;;;24.37;16.07;;;7.50;99.90;;;;;;5013930;28;20262;-70
2021/11/05 06:31:33;;;;;;;23.37;16.53;;;7.50;99.90;;;;;;5015751;28;20258;-71
2021/11/05 06:34:00;;;;;;;20.40;15.20;;;7.50;99.90;;;;;;5018112;28;20587;-71
2021/11/05 06:36:27;;;;;;;18.53;14.73;;;7.50;99.90;;;;;;5018534;28;20221;-71
2021/11/05 06:38:55;;;;;;;23.23;16.50;;;7.50;99.90;;;;;;5015365;28;20201;-71
2021/11/05 06:41:23;;;;;;;19.43;14.93;;;7.50;99.90;;;;;;5019820;28;20201;-71
2021/11/05 06:43:50;;;;;;;18.40;14.50;;;7.60;99.90;;;;;;5019130;28;20212;-71
2021/11/05 06:46:16;;;;;;;19.13;14.10;;;7.50;99.90;;;;;;5016675;28;20258;-71
2021/11/05 06:48:43;;;;;;;17.20;13.53;;;7.60;99.90;;;;;;5014335;28;20197;-71
2021/11/05 06:51:10;;;;;;;22.77;14.00;;;7.60;99.90;;;;;;5018106;28;20632;-70
2021/11/05 06:53:37;;;;;;;18.97;13.77;;;7.60;99.90;;;;;;5018985;28;20625;-70
2021/11/05 06:56:05;;;;;;;19.13;13.77;;;7.60;99.90;;;;;;5016985;28;20277;-71
2021/11/05 06:58:36;;;;;;;18.97;14.03;;;7.60;99.90;;;;;;5017118;28;20209;-71
2021/11/05 07:01:02;;;;;;;23.60;13.80;;;7.60;99.90;;;;;;5016297;28;20229;-71
2021/11/05 07:03:29;;;;;;;15.90;12.63;;;7.60;99.90;;;;;;5015642;28;20201;-71
2021/11/05 07:05:56;;;;;;;16.73;13.37;;;7.70;99.90;;;;;;5018030;28;20225;-70
2021/11/05 07:08:23;;;;;;;18.87;12.90;;;7.70;99.90;;;;;;5026798;28;20265;-70
2021/11/05 07:10:49;;;;;;;18.13;12.77;;;7.70;99.90;;;;;;5021466;28;20317;-70
2021/11/05 07:13:16;;;;;;;16.33;11.83;;;7.70;99.90;;;;;;5026927;28;20212;-70
2021/11/05 07:15:44;;;;;;;19.10;14.13;;;7.70;99.90;;;;;;5014138;28;20282;-70
2021/11/05 07:18:11;;;;;;;17.20;13.47;;;7.70;99.90;;;;;;5015285;28;20197;-70
2021/11/05 07:20:38;;;;;;;16.63;12.17;;;7.70;99.90;;;;;;5024018;28;20197;-70
2021/11/05 07:23:08;;;;;;;16.77;11.57;;;7.70;99.90;;;;;;5023600;28;20197;-71
2021/11/05 07:25:34;;;;;;;17.37;11.90;;;7.80;99.90;;;;;;5020955;28;20202;-70
2021/11/05 07:28:01;;;;;;;15.80;12.20;;;7.80;99.90;;;;;;5016756;28;20205;-71
2021/11/05 07:30:28;;;;;;;16.07;12.00;;;7.80;99.90;;;;;;5022315;28;20670;-70
2021/11/05 07:32:57;;;;;;;17.27;12.13;;;7.80;99.90;;;;;;5020719;28;20273;-70
2021/11/05 07:35:24;;;;;;;15.90;11.77;;;7.80;99.90;;;;;;5021674;28;20273;-70
2021/11/05 07:37:52;;;;;;;13.50;11.60;;;7.80;99.90;;;;;;5022875;28;20213;-70
2021/11/05 07:40:19;;;;;;;14.43;12.33;;;7.80;99.90;;;;;;5022270;28;20209;-71
2021/11/05 07:42:47;;;;;;;16.97;11.53;;;7.80;99.90;;;;;;5019472;28;20209;-70
2021/11/05 07:45:16;;;;;;;14.33;11.57;;;7.80;99.90;;;;;;5020640;28;20258;-70
2021/11/05 07:47:44;;;;;;;13.43;11.43;;;7.80;99.90;;;;;;5021715;28;20201;-71
2021/11/05 07:50:15;;;;;;;15.13;11.83;;;7.80;99.90;;;;;;5011473;28;20225;-71
2021/11/05 07:52:42;;;;;;;15.60;11.10;;;7.80;99.90;;;;;;5012054;28;20223;-72
2021/11/05 07:55:09;;;;;;;14.23;11.00;;;7.80;99.90;;;;;;5013914;28;20250;-71
2021/11/05 07:57:37;;;;;;;15.70;11.63;;;7.80;99.90;;;;;;5009068;28;20713;-71
2021/11/05 08:00:04;;;;;;;20.67;12.27;;;7.80;99.90;;;;;;5012970;28;20649;-71
2021/11/05 08:02:31;;;;;;;15.33;11.57;;;7.80;99.90;;;;;;5011761;28;20665;-71
2021/11/05 08:05:00;;;;;;;18.70;12.27;;;7.90;99.90;;;;;;5015198;28;20254;-71
2021/11/05 08:07:28;;;;;;;14.00;10.93;;;7.90;99.90;;;;;;5025695;28;20230;-71
2021/11/05 08:09:58;;;;;;;16.17;11.27;;;7.80;99.90;;;;;;5025848;28;20208;-71
2021/11/05 08:12:25;;;;;;;16.17;11.07;;;7.90;99.90;;;;;;5025557;28;20594;-71
2021/11/05 08:14:51;;;;;;;12.67;10.37;;;7.90;99.90;;;;;;5025651;28;20285;-71
2021/11/05 08:17:18;;;;;;;13.57;10.53;;;7.90;99.90;;;;;;5025131;28;20232;-71
2021/11/05 08:19:44;;;;;;;20.30;11.50;;;7.90;99.90;;;;;;5025973;28;20217;-71
2021/11/05 08:22:11;;;;;;;15.07;10.10;;;7.90;99.90;;;;;;5025570;28;20209;-72
2021/11/05 08:24:39;;;;;;;13.13;10.67;;;7.90;99.90;;;;;;5025711;28;20223;-72
2021/11/05 08:27:06;;;;;;;12.23;10.90;;;8.00;99.90;;;;;;5026209;28;20205;-72
2021/11/05 08:29:33;;;;;;;11.77;9.57;;;8.00;99.90;;;;;;5025803;28;20799;-72
2021/11/05 08:32:00;;;;;;;20.80;11.77;;;8.10;99.90;;;;;;5025297;28;20269;-71
2021/11/05 08:34:26;;;;;;;17.17;11.50;;;8.10;99.90;;;;;;5025410;28;20217;-71
2021/11/05 08:36:53;;;;;;;11.17;10.03;;;8.10;99.90;;;;;;5025661;28;20233;-71
2021/11/05 08:39:20;;;;;;;11.93;9.10;;;8.10;99.90;;;;;;5020109;28;20681;-71
2021/11/05 08:41:48;;;;;;;12.03;9.20;;;8.10;99.90;;;;;;5013773;28;20262;-71
2021/11/05 08:44:15;;;;;;;12.43;9.00;;;8.10;99.90;;;;;;5015609;28;20209;-71
2021/11/05 08:46:43;;;;;;;10.57;9.43;;;8.10;99.90;;;;;;5014456;28;20208;-71
2021/11/05 08:49:12;;;;;;;13.07;8.83;;;8.10;99.90;;;;;;5014120;28;20298;-72
2021/11/05 08:51:41;;;;;;;10.23;9.13;;;8.10;99.90;;;;;;5014490;28;20200;-72
2021/11/05 08:54:08;;;;;;;11.63;9.20;;;8.10;99.90;;;;;;5005310;28;20201;-72
2021/11/05 08:56:35;;;;;;;8.87;7.97;;;8.20;99.90;;;;;;5011096;28;20220;-71
2021/11/05 08:59:04;;;;;;;9.30;8.40;;;8.20;99.90;;;;;;5013288;28;20209;-71
2021/11/05 09:01:31;;;;;;;13.20;8.37;;;8.20;99.90;;;;;;5014144;28;20638;-73
2021/11/05 09:03:59;;;;;;;10.40;8.17;;;8.20;99.90;;;;;;5012825;28;20205;-71
2021/11/05 09:06:26;;;;;;;9.10;8.00;;;8.20;99.90;;;;;;5015614;28;20201;-71
2021/11/05 09:08:55;;;;;;;10.47;7.83;;;8.20;99.90;;;;;;5014440;28;20205;-71
2021/11/05 09:11:22;;;;;;;9.60;7.37;;;8.30;99.90;;;;;;5012795;28;20225;-72
2021/11/05 09:13:50;;;;;;;10.70;8.53;;;8.20;99.90;;;;;;5013545;28;20286;-72
2021/11/05 09:16:18;;;;;;;12.80;8.17;;;8.20;99.90;;;;;;5013448;28;20224;-72
2021/11/05 09:18:45;;;;;;;11.73;7.90;;;8.30;99.90;;;;;;5012691;28;20824;-72
2021/11/05 09:21:12;;;;;;;8.43;7.23;;;8.20;99.90;;;;;;5015755;28;20201;-71
2021/11/05 09:23:38;;;;;;;12.63;8.03;;;8.30;99.90;;;;;;5013505;28;20198;-72
2021/11/05 09:26:05;;;;;;;8.10;7.30;;;8.30;99.90;;;;;;5014615;28;20671;-73
2021/11/05 09:28:31;;;;;;;10.50;9.07;;;8.30;99.90;;;;;;5015394;28;20197;-73
2021/11/05 09:30:59;;;;;;;11.83;7.47;;;8.40;99.90;;;;;;5017225;28;20255;-72
2021/11/05 09:33:27;;;;;;;8.33;7.47;;;8.40;99.90;;;;;;5008565;28;20290;-71
2021/11/05 09:35:54;;;;;;;9.03;7.47;;;8.40;99.90;;;;;;5008348;28;20209;-72
2021/11/05 09:38:21;;;;;;;7.73;6.90;;;8.40;99.90;;;;;;5008761;28;20216;-71
2021/11/05 09:40:50;;;;;;;10.67;7.33;;;8.40;99.90;;;;;;5008325;28;20209;-72
2021/11/05 09:43:17;;;;;;;10.60;7.70;;;8.40;99.90;;;;;;5008500;28;20210;-71
2021/11/05 09:45:43;;;;;;;9.97;8.03;;;8.50;99.90;;;;;;5008307;28;20227;-72
2021/11/05 09:48:10;;;;;;;8.03;7.33;;;8.50;99.90;;;;;;5008347;28;20270;-71
2021/11/05 09:50:39;;;;;;;10.07;8.20;;;8.50;99.90;;;;;;5008690;28;20645;-72
2021/11/05 09:53:09;;;;;;;9.70;8.03;;;8.50;99.90;;;;;;5008197;28;20598;-72
2021/11/05 09:55:42;;;;;;;9.47;7.47;;;8.50;99.90;;;;;;5008721;28;20202;-72
2021/11/05 09:58:09;;;;;;;7.27;6.67;;;8.60;99.90;;;;;;5008273;28;20756;-71
2021/11/05 10:00:36;;;;;;;10.10;6.87;;;8.60;99.90;;;;;;5008123;28;20241;-71
2021/11/05 10:03:03;;;;;;;7.70;6.80;;;8.60;99.90;;;;;;5007948;28;20706;-72
2021/11/05 10:05:32;;;;;;;6.90;6.20;;;8.70;99.90;;;;;;5016956;28;20197;-72
2021/11/05 10:08:00;;;;;;;7.10;6.40;;;8.70;99.90;;;;;;5018263;28;20229;-72
2021/11/05 10:10:28;;;;;;;8.30;6.50;;;8.70;99.90;;;;;;5015474;28;20221;-72
2021/11/05 10:13:02;;;;;;;9.63;7.37;;;8.70;99.90;;;;;;5017858;28;20221;-72
2021/11/05 10:15:41;;;;;;;9.10;6.57;;;8.70;99.90;;;;;;5007324;28;20198;-72
2021/11/05 10:18:11;;;;;;;7.07;6.47;;;8.70;99.90;;;;;;5007346;28;20251;-72
2021/11/05 10:20:39;;;;;;;7.83;6.77;;;8.70;99.90;;;;;;5024345;28;20197;-72
2021/11/05 10:23:08;;;;;;;7.60;6.27;;;8.80;99.90;;;;;;5016559;28;20197;-72
2021/11/05 10:25:37;;;;;;;7.73;6.50;;;8.80;99.90;;;;;;5015501;28;20205;-72
2021/11/05 10:28:13;;;;;;;7.23;6.53;;;8.80;99.90;;;;;;5004480;28;20214;-72
2021/11/05 10:30:51;;;;;;;6.97;6.37;;;8.80;99.90;;;;;;5012918;28;20239;-72
2021/11/05 10:33:20;;;;;;;8.77;6.43;;;8.80;99.90;;;;;;5027068;28;20253;-73
2021/11/05 10:35:50;;;;;;;7.67;7.03;;;8.80;99.90;;;;;;5027491;28;20213;-73
2021/11/05 10:38:19;;;;;;;7.70;6.50;;;8.80;99.90;;;;;;5027877;28;21089;-72
2021/11/05 10:40:48;;;;;;;7.27;6.40;;;8.90;99.90;;;;;;5028703;27;20553;-72
2021/11/05 10:43:19;;;;;;;7.53;6.30;;;8.90;99.90;;;;;;5027357;27;20291;-71
2021/11/05 10:45:47;;;;;;;6.77;5.77;;;8.80;99.90;;;;;;5027212;28;20209;-72
2021/11/05 10:48:16;;;;;;;9.63;5.60;;;8.80;99.90;;;;;;5012133;28;20703;-72
2021/11/05 10:50:53;;;;;;;7.03;6.23;;;8.80;99.90;;;;;;5035704;27;20655;-74
2021/11/05 10:53:23;;;;;;;6.80;6.10;;;8.80;99.90;;;;;;5033866;28;20200;-71
2021/11/05 10:55:52;;;;;;;8.27;6.03;;;8.80;99.90;;;;;;5025189;27;20198;-71
2021/11/05 10:58:25;;;;;;;7.87;7.07;;;8.80;99.90;;;;;;5025411;28;20268;-72
2021/11/05 11:00:56;;;;;;;9.37;6.30;;;8.80;99.90;;;;;;5026421;28;20607;-72
2021/11/05 11:03:30;;;;;;;9.70;6.83;;;8.80;99.90;;;;;;5025928;28;20300;-72
2021/11/05 11:05:58;;;;;;;7.63;6.83;;;8.80;99.90;;;;;;5027174;28;20207;-72
2021/11/05 11:08:28;;;;;;;6.93;6.33;;;8.80;99.90;;;;;;5027149;28;20208;-72
2021/11/05 11:10:57;;;;;;;6.93;6.23;;;8.80;99.90;;;;;;5027101;28;20608;-72
2021/11/05 11:13:32;;;;;;;7.40;6.70;;;8.90;99.90;;;;;;5027012;28;20248;-72
2021/11/05 11:16:00;;;;;;;7.70;6.67;;;8.90;99.90;;;;;;5026680;28;20621;-72
2021/11/05 11:18:27;;;;;;;9.40;6.37;;;8.90;99.90;;;;;;5026672;28;20710;-72
2021/11/05 11:20:53;;;;;;;7.03;6.20;;;8.90;99.90;;;;;;5027025;28;20257;-72
2021/11/05 11:23:21;;;;;;;8.60;6.80;;;8.90;99.90;;;;;;5026830;28;20721;-72
2021/11/05 11:25:50;;;;;;;7.23;6.03;;;8.90;99.90;;;;;;5026616;28;20226;-72
2021/11/05 11:28:17;;;;;;;8.53;6.33;;;8.90;99.90;;;;;;5026758;28;20213;-72
2021/11/05 11:30:44;;;;;;;7.90;5.97;;;8.90;99.90;;;;;;5026909;28;20217;-71
2021/11/05 11:33:11;;;;;;;8.37;6.63;;;9.00;99.90;;;;;;5026636;28;20275;-71
2021/11/05 11:35:41;;;;;;;6.80;6.07;;;9.00;99.90;;;;;;5027053;28;20209;-71
2021/11/05 11:38:07;;;;;;;8.00;6.13;;;9.00;99.90;;;;;;5026442;28;20229;-71
2021/11/05 11:40:34;;;;;;;7.43;5.83;;;9.10;99.90;;;;;;5026674;28;20209;-71
2021/11/05 11:43:02;;;;;;;7.93;5.37;;;9.20;99.90;;;;;;5024778;28;20254;-71
2021/11/05 11:45:30;;;;;;;7.13;5.67;;;9.20;99.90;;;;;;5026520;28;20335;-71
2021/11/05 11:47:59;;;;;;;6.07;5.00;;;9.20;99.90;;;;;;5025932;28;20713;-71
2021/11/05 11:50:27;;;;;;;8.17;5.07;;;9.20;99.90;;;;;;5026635;28;20232;-71
2021/11/05 11:53:00;;;;;;;7.07;4.57;;;9.30;99.90;;;;;;5025211;28;20205;-71
2021/11/05 11:55:29;;;;;;;5.90;4.37;;;9.20;99.90;;;;;;5025987;28;20572;-71
2021/11/05 11:58:18;;;;;;;5.20;4.70;;;9.20;99.90;;;;;;5026289;28;20300;-71
2021/11/05 12:00:47;;;;;;;6.20;4.37;;;9.20;99.90;;;;;;5026072;28;20236;-71
2021/11/05 12:03:15;;;;;;;4.90;4.30;;;9.20;99.90;;;;;;5026387;28;20212;-71
2021/11/05 12:05:45;;;;;;;4.50;4.20;;;9.20;99.90;;;;;;5026109;28;20660;-71
2021/11/05 12:08:20;;;;;;;4.40;4.03;;;9.20;99.90;;;;;;5025933;28;20670;-71
2021/11/05 12:10:49;;;;;;;6.97;3.83;;;9.20;99.90;;;;;;5026043;28;20259;-71
2021/11/05 12:13:47;;;;;;;4.37;3.97;;;9.20;99.90;;;;;;5026227;28;20229;-71
2021/11/05 12:16:21;;;;;;;5.07;4.67;;;9.30;99.90;;;;;;5025783;28;20685;-71
2021/11/05 12:19:11;;;;;;;6.87;4.00;;;9.40;99.90;;;;;;5025741;28;20718;-71
2021/11/05 12:21:41;;;;;;;6.07;3.53;;;9.40;99.90;;;;;;5026099;28;20269;-71
2021/11/05 12:24:27;;;;;;;8.40;3.90;;;9.60;99.90;;;;;;5025840;28;20201;-71
2021/11/05 12:26:55;;;;;;;4.57;3.37;;;9.60;99.90;;;;;;5025768;28;20706;-71
2021/11/05 12:30:13;;;;;;;5.40;3.10;;;9.70;99.90;;;;;;5025658;28;20743;-71
2021/11/05 12:32:42;;;;;;;5.27;3.50;;;9.90;99.90;;;;;;5025569;28;20233;-71
2021/11/05 12:35:25;;;;;;;4.77;3.57;;;10.00;99.90;;;;;;5025681;28;20344;-71
2021/11/05 12:37:58;;;;;;;3.57;3.27;;;10.00;99.90;;;;;;5025706;28;20221;-71
2021/11/05 12:40:31;;;;;;;3.57;3.37;;;10.20;99.90;;;;;;5025375;28;20773;-71
2021/11/05 12:43:00;;;;;;;4.10;3.80;;;10.30;99.90;;;;;;5025471;28;20228;-71
2021/11/05 12:45:48;;;;;;;4.30;3.90;;;10.40;99.90;;;;;;5025622;28;20719;-71
2021/11/05 12:48:17;;;;;;;4.60;4.20;;;10.30;99.90;;;;;;5025403;28;20251;-71
2021/11/05 12:50:45;;;;;;;5.03;4.70;;;10.30;99.90;;;;;;5025491;28;20241;-71
2021/11/05 12:53:13;;;;;;;5.90;5.10;;;10.20;99.90;;;;;;5025349;28;20209;-71
2021/11/05 12:55:41;;;;;;;5.70;5.20;;;10.10;99.90;;;;;;5025604;28;20212;-71